createdAt,value
2022-09-03T00:00:24.262Z,71.65
2022-09-03T00:01:24.318Z,71.65
2022-09-03T00:02:24.283Z,71.65
2022-09-03T00:03:24.254Z,72.13
2022-09-03T00:04:25.810Z,72.03
2022-09-03T00:05:24.248Z,72.23
2022-09-03T00:06:24.246Z,72.13
2022-09-03T00:07:24.238Z,72.03
2022-09-03T00:08:24.333Z,72.03
2022-09-03T00:09:24.232Z,71.75
2022-09-03T00:10:24.233Z,72.32
2022-09-03T00:11:24.225Z,72.13
2022-09-03T00:12:24.217Z,72.03
2022-09-03T00:13:24.218Z,72.13
2022-09-03T00:14:24.217Z,71.91
2022-09-03T00:15:24.205Z,71.81
2022-09-03T00:16:24.242Z,72.13
2022-09-03T00:17:24.199Z,72.00
2022-09-03T00:18:24.264Z,72.38
2022-09-03T00:19:24.191Z,72.38
2022-09-03T00:20:24.188Z,73.15
2022-09-03T00:21:24.187Z,73.00
2022-09-03T00:22:24.184Z,72.80
2022-09-03T00:23:24.178Z,73.28
2022-09-03T00:24:24.185Z,72.86
2022-09-03T00:25:25.020Z,73.63
2022-09-03T00:26:24.163Z,73.73
2022-09-03T00:27:24.150Z,73.73
2022-09-03T00:28:24.348Z,74.25
2022-09-03T00:29:24.157Z,74.54
2022-09-03T00:30:24.147Z,74.25
2022-09-03T00:31:24.158Z,74.44
2022-09-03T00:32:24.143Z,73.86
2022-09-03T00:33:24.134Z,74.34
2022-09-03T00:34:24.134Z,74.73
2022-09-03T00:35:24.127Z,74.73
2022-09-03T00:36:24.123Z,74.69
2022-09-03T00:37:24.110Z,73.25
2022-09-03T00:38:24.191Z,73.83
2022-09-03T00:39:24.179Z,73.54
2022-09-03T00:40:24.112Z,73.06
2022-09-03T00:41:24.102Z,73.06
2022-09-03T00:42:24.096Z,72.86
2022-09-03T00:43:24.097Z,72.67
2022-09-03T00:44:24.090Z,72.77
2022-09-03T00:45:24.088Z,72.96
2022-09-03T00:46:24.137Z,73.06
2022-09-03T00:47:24.077Z,73.35
2022-09-03T00:48:28.272Z,73.25
2022-09-03T00:49:24.068Z,73.15
2022-09-03T00:50:24.067Z,73.06
2022-09-03T00:51:24.063Z,73.35
2022-09-03T00:52:24.056Z,72.96
2022-09-03T00:53:24.052Z,73.15
2022-09-03T00:54:24.046Z,73.02
2022-09-03T00:55:24.046Z,72.83
2022-09-03T00:56:24.041Z,72.64
2022-09-03T00:57:24.039Z,73.11
2022-09-03T00:58:24.127Z,73.50
2022-09-03T00:59:24.043Z,73.35
2022-09-03T01:00:24.027Z,73.06
2022-09-03T01:01:24.123Z,73.15
2022-09-03T01:02:24.189Z,73.15
2022-09-03T01:03:24.017Z,73.06
2022-09-03T01:04:24.004Z,72.38
2022-09-03T01:05:23.999Z,72.58
2022-09-03T01:06:23.995Z,72.38
2022-09-03T01:07:23.995Z,72.67
2022-09-03T01:08:24.085Z,72.96
2022-09-03T01:09:23.981Z,71.81
2022-09-03T01:10:23.983Z,71.42
2022-09-03T01:11:23.974Z,71.42
2022-09-03T01:12:23.975Z,72.00
2022-09-03T01:13:23.962Z,71.81
2022-09-03T01:14:23.962Z,71.91
2022-09-03T01:15:23.957Z,72.19
2022-09-03T01:16:24.044Z,72.29
2022-09-03T01:17:23.949Z,72.67
2022-09-03T01:18:24.051Z,72.58
2022-09-03T01:19:23.939Z,73.06
2022-09-03T01:20:23.938Z,73.35
2022-09-03T01:21:23.933Z,73.35
2022-09-03T01:22:23.927Z,73.83
2022-09-03T01:23:23.925Z,73.79
2022-09-03T01:24:23.917Z,74.55
2022-09-03T01:25:23.913Z,75.32
2022-09-03T01:26:23.909Z,75.23
2022-09-03T01:27:23.906Z,75.71
2022-09-03T01:28:24.007Z,75.23
2022-09-03T01:29:23.892Z,76.00
2022-09-03T01:30:23.892Z,75.71
2022-09-03T01:31:23.939Z,75.71
2022-09-03T01:32:23.885Z,76.39
2022-09-03T01:33:23.875Z,75.71
2022-09-03T01:34:23.878Z,75.81
2022-09-03T01:35:23.870Z,75.62
2022-09-03T01:36:23.869Z,75.52
2022-09-03T01:37:23.861Z,75.90
2022-09-03T01:38:23.893Z,76.09
2022-09-03T01:39:23.907Z,75.52
2022-09-03T01:40:23.850Z,75.52
2022-09-03T01:41:23.849Z,75.42
2022-09-03T01:42:23.837Z,75.71
2022-09-03T01:43:23.839Z,75.90
2022-09-03T01:44:23.832Z,76.14
2022-09-03T01:45:23.826Z,75.75
2022-09-03T01:46:23.856Z,75.52
2022-09-03T01:47:23.816Z,76.19
2022-09-03T01:48:23.866Z,76.39
2022-09-03T01:49:23.806Z,75.84
2022-09-03T01:50:23.803Z,75.56
2022-09-03T01:51:23.800Z,75.81
2022-09-03T01:52:23.797Z,75.90
2022-09-03T01:53:23.793Z,76.09
2022-09-03T01:54:23.791Z,76.00
2022-09-03T01:55:23.772Z,75.90
2022-09-03T01:56:23.776Z,75.90
2022-09-03T01:57:35.312Z,76.77
2022-09-03T01:58:23.800Z,77.15
2022-09-03T01:59:23.765Z,77.83
2022-09-03T02:00:23.759Z,78.78
2022-09-03T02:01:23.826Z,79.32
2022-09-03T02:02:23.792Z,79.22
2022-09-03T02:03:23.748Z,79.22
2022-09-03T02:04:23.755Z,79.13
2022-09-03T02:05:23.734Z,79.52
2022-09-03T02:06:23.732Z,79.80
2022-09-03T02:07:23.728Z,80.19
2022-09-03T02:08:23.956Z,80.28
2022-09-03T02:09:23.719Z,80.47
2022-09-03T02:10:23.717Z,80.47
2022-09-03T02:11:23.709Z,79.71
2022-09-03T02:12:23.703Z,79.61
2022-09-03T02:13:23.699Z,79.32
2022-09-03T02:14:23.697Z,79.22
2022-09-03T02:15:23.764Z,79.13
2022-09-03T02:16:23.688Z,79.42
2022-09-03T02:17:23.686Z,79.13
2022-09-03T02:18:23.810Z,78.94
2022-09-03T02:19:23.672Z,78.84
2022-09-03T02:20:23.673Z,78.84
2022-09-03T02:21:23.662Z,78.36
2022-09-03T02:22:23.661Z,77.88
2022-09-03T02:23:27.680Z,77.11
2022-09-03T02:24:23.651Z,77.01
2022-09-03T02:25:23.647Z,77.31
2022-09-03T02:26:23.650Z,77.59
2022-09-03T02:27:23.639Z,79.22
2022-09-03T02:28:23.695Z,78.55
2022-09-03T02:29:23.628Z,78.08
2022-09-03T02:30:23.621Z,77.78
2022-09-03T02:31:23.655Z,77.98
2022-09-03T02:32:23.614Z,78.08
2022-09-03T02:33:23.611Z,78.08
2022-09-03T02:34:23.606Z,77.78
2022-09-03T02:35:23.604Z,77.69
2022-09-03T02:36:23.593Z,77.59
2022-09-03T02:37:23.592Z,78.36
2022-09-03T02:38:23.730Z,77.78
2022-09-03T02:39:23.642Z,77.59
2022-09-03T02:40:23.580Z,77.78
2022-09-03T02:41:23.569Z,77.98
2022-09-03T02:42:23.569Z,78.08
2022-09-03T02:43:25.913Z,78.08
2022-09-03T02:44:23.557Z,78.17
2022-09-03T02:45:23.556Z,78.30
2022-09-03T02:46:23.637Z,78.65
2022-09-03T02:47:23.548Z,78.27
2022-09-03T02:48:23.581Z,78.36
2022-09-03T02:49:23.534Z,78.17
2022-09-03T02:50:23.530Z,79.03
2022-09-03T02:51:23.530Z,78.65
2022-09-03T02:52:23.525Z,78.65
2022-09-03T02:53:23.531Z,78.84
2022-09-03T02:54:23.524Z,79.32
2022-09-03T02:55:23.514Z,79.42
2022-09-03T02:56:23.507Z,79.52
2022-09-03T02:57:27.519Z,79.71
2022-09-03T02:58:23.618Z,79.61
2022-09-03T02:59:23.491Z,78.55
2022-09-03T03:00:23.489Z,79.22
2022-09-03T03:01:24.215Z,77.88
2022-09-03T03:02:23.531Z,77.21
2022-09-03T03:03:23.470Z,77.21
2022-09-03T03:04:23.468Z,77.31
2022-09-03T03:05:23.467Z,77.40
2022-09-03T03:06:23.457Z,76.09
2022-09-03T03:07:23.455Z,76.29
2022-09-03T03:08:23.529Z,75.32
2022-09-03T03:09:23.444Z,75.90
2022-09-03T03:10:23.439Z,75.71
2022-09-03T03:11:23.437Z,75.23
2022-09-03T03:12:23.433Z,75.32
2022-09-03T03:13:23.434Z,75.71
2022-09-03T03:14:23.425Z,75.23
2022-09-03T03:15:23.418Z,75.23
2022-09-03T03:16:23.437Z,75.23
2022-09-03T03:17:23.406Z,75.23
2022-09-03T03:18:23.414Z,74.85
2022-09-03T03:19:23.399Z,74.27
2022-09-03T03:20:23.393Z,74.55
2022-09-03T03:21:23.382Z,74.37
2022-09-03T03:22:23.378Z,74.65
2022-09-03T03:23:23.376Z,74.85
2022-09-03T03:24:23.377Z,75.23
2022-09-03T03:25:23.368Z,74.46
2022-09-03T03:26:23.358Z,74.65
2022-09-03T03:27:23.363Z,74.65
2022-09-03T03:28:23.607Z,74.94
2022-09-03T03:29:23.356Z,74.85
2022-09-03T03:30:23.349Z,74.85
2022-09-03T03:31:23.399Z,75.23
2022-09-03T03:32:23.337Z,75.32
2022-09-03T03:33:23.332Z,75.13
2022-09-03T03:34:23.324Z,75.32
2022-09-03T03:35:23.320Z,75.13
2022-09-03T03:36:23.315Z,75.04
2022-09-03T03:37:23.309Z,74.94
2022-09-03T03:38:23.366Z,74.75
2022-09-03T03:39:23.364Z,75.23
2022-09-03T03:40:23.296Z,75.04
2022-09-03T03:41:23.295Z,75.04
2022-09-03T03:42:23.285Z,75.32
2022-09-03T03:43:23.278Z,75.23
2022-09-03T03:44:23.268Z,75.32
2022-09-03T03:45:23.274Z,75.23
2022-09-03T03:46:23.358Z,74.65
2022-09-03T03:47:23.263Z,75.04
2022-09-03T03:48:23.257Z,75.52
2022-09-03T03:49:23.251Z,75.81
2022-09-03T03:50:23.255Z,75.71
2022-09-03T03:51:23.243Z,75.62
2022-09-03T03:52:23.236Z,76.39
2022-09-03T03:53:23.233Z,75.62
2022-09-03T03:54:23.229Z,76.39
2022-09-03T03:55:23.225Z,76.00
2022-09-03T03:56:23.216Z,76.09
2022-09-03T03:57:23.216Z,76.29
2022-09-03T03:58:23.393Z,76.48
2022-09-03T03:59:23.206Z,76.29
2022-09-03T04:00:24.639Z,76.19
2022-09-03T04:01:23.302Z,76.77
2022-09-03T04:02:23.229Z,76.96
2022-09-03T04:03:23.187Z,77.06
2022-09-03T04:04:23.178Z,77.15
2022-09-03T04:05:24.027Z,77.15
2022-09-03T04:06:23.166Z,76.77
2022-09-03T04:07:23.170Z,77.15
2022-09-03T04:08:23.164Z,76.96
2022-09-03T04:09:23.153Z,76.96
2022-09-03T04:10:23.147Z,77.01
2022-09-03T04:11:23.146Z,77.25
2022-09-03T04:12:23.137Z,76.96
2022-09-03T04:13:23.129Z,76.96
2022-09-03T04:14:23.131Z,77.15
2022-09-03T04:15:23.128Z,76.96
2022-09-03T04:16:23.229Z,76.96
2022-09-03T04:17:25.261Z,77.53
2022-09-03T04:18:23.200Z,77.73
2022-09-03T04:19:23.107Z,78.11
2022-09-03T04:20:23.102Z,77.92
2022-09-03T04:21:23.114Z,78.30
2022-09-03T04:22:23.094Z,78.59
2022-09-03T04:23:23.087Z,79.52
2022-09-03T04:24:23.084Z,78.08
2022-09-03T04:25:23.074Z,78.75
2022-09-03T04:26:23.074Z,79.32
2022-09-03T04:27:23.077Z,79.27
2022-09-03T04:28:25.104Z,79.17
2022-09-03T04:29:23.055Z,79.55
2022-09-03T04:30:23.054Z,79.61
2022-09-03T04:31:23.065Z,79.71
2022-09-03T04:32:23.044Z,78.65
2022-09-03T04:33:23.035Z,79.42
2022-09-03T04:34:23.035Z,78.84
2022-09-03T04:35:23.030Z,79.13
2022-09-03T04:36:23.025Z,78.75
2022-09-03T04:37:23.047Z,77.88
2022-09-03T04:38:23.077Z,77.98
2022-09-03T04:39:23.085Z,77.01
2022-09-03T04:40:23.004Z,76.73
2022-09-03T04:41:23.023Z,76.73
2022-09-03T04:42:23.013Z,76.92
2022-09-03T04:43:22.993Z,76.54
2022-09-03T04:44:22.987Z,77.06
2022-09-03T04:45:22.975Z,76.77
2022-09-03T04:46:22.999Z,76.48
2022-09-03T04:47:22.973Z,76.96
2022-09-03T04:48:23.050Z,76.57
2022-09-03T04:49:22.960Z,76.39
2022-09-03T04:50:22.955Z,76.39
2022-09-03T04:51:22.953Z,76.29
2022-09-03T04:52:22.949Z,76.00
2022-09-03T04:53:22.946Z,76.77
2022-09-03T04:54:22.940Z,76.09
2022-09-03T04:55:22.932Z,75.90
2022-09-03T04:56:22.930Z,75.71
2022-09-03T04:57:22.916Z,76.00
2022-09-03T04:58:22.919Z,76.29
2022-09-03T04:59:22.918Z,75.90
2022-09-03T05:00:22.907Z,76.09
2022-09-03T05:01:22.969Z,76.09
2022-09-03T05:02:22.937Z,76.09
2022-09-03T05:03:22.892Z,76.39
2022-09-03T05:04:22.892Z,75.90
2022-09-03T05:05:22.881Z,76.09
2022-09-03T05:06:22.876Z,76.19
2022-09-03T05:07:22.871Z,76.48
2022-09-03T05:08:22.877Z,76.09
2022-09-03T05:09:22.864Z,76.00
2022-09-03T05:10:22.856Z,76.09
2022-09-03T05:11:22.853Z,75.90
2022-09-03T05:12:22.849Z,76.09
2022-09-03T05:13:22.849Z,76.29
2022-09-03T05:14:22.840Z,76.81
2022-09-03T05:15:22.838Z,76.04
2022-09-03T05:16:22.861Z,76.14
2022-09-03T05:17:22.825Z,76.67
2022-09-03T05:18:22.904Z,76.57
2022-09-03T05:19:22.818Z,76.52
2022-09-03T05:20:22.803Z,76.81
2022-09-03T05:21:22.813Z,76.57
2022-09-03T05:22:22.800Z,77.06
2022-09-03T05:23:22.799Z,77.09
2022-09-03T05:24:22.793Z,77.29
2022-09-03T05:25:22.789Z,77.48
2022-09-03T05:26:22.781Z,77.67
2022-09-03T05:27:22.780Z,77.00
2022-09-03T05:28:22.798Z,76.81
2022-09-03T05:29:22.764Z,76.48
2022-09-03T05:30:22.765Z,77.09
2022-09-03T05:31:22.791Z,77.00
2022-09-03T05:32:22.755Z,77.29
2022-09-03T05:33:22.751Z,76.81
2022-09-03T05:34:22.743Z,76.81
2022-09-03T05:35:25.910Z,76.42
2022-09-03T05:36:22.739Z,76.71
2022-09-03T05:37:22.730Z,76.42
2022-09-03T05:38:22.732Z,76.32
2022-09-03T05:39:22.771Z,76.19
2022-09-03T05:40:22.717Z,76.09
2022-09-03T05:41:22.714Z,75.94
2022-09-03T05:42:22.707Z,75.65
2022-09-03T05:43:22.703Z,75.84
2022-09-03T05:44:22.699Z,75.84
2022-09-03T05:45:22.743Z,75.56
2022-09-03T05:46:22.690Z,75.46
2022-09-03T05:47:22.690Z,75.56
2022-09-03T05:48:22.680Z,75.65
2022-09-03T05:49:22.676Z,75.94
2022-09-03T05:50:22.671Z,75.84
2022-09-03T05:51:22.665Z,75.65
2022-09-03T05:52:22.664Z,75.65
2022-09-03T05:53:22.706Z,76.04
2022-09-03T05:54:22.655Z,75.56
2022-09-03T05:55:22.647Z,75.56
2022-09-03T05:56:22.641Z,75.46
2022-09-03T05:57:22.634Z,75.94
2022-09-03T05:58:22.633Z,75.75
2022-09-03T05:59:22.632Z,75.56
2022-09-03T06:00:22.628Z,75.94
2022-09-03T06:01:22.621Z,75.94
2022-09-03T06:02:22.754Z,75.75
2022-09-03T06:03:22.892Z,75.17
2022-09-03T06:04:22.606Z,75.56
2022-09-03T06:05:22.600Z,75.65
2022-09-03T06:06:22.596Z,75.94
2022-09-03T06:07:22.589Z,75.75
2022-09-03T06:08:22.592Z,75.75
2022-09-03T06:09:23.380Z,76.32
2022-09-03T06:10:26.937Z,75.75
2022-09-03T06:11:22.572Z,75.56
2022-09-03T06:12:22.568Z,75.84
2022-09-03T06:13:22.667Z,75.94
2022-09-03T06:14:22.558Z,75.94
2022-09-03T06:15:22.554Z,75.65
2022-09-03T06:16:31.927Z,75.75
2022-09-03T06:17:22.545Z,75.84
2022-09-03T06:18:22.602Z,75.56
2022-09-03T06:19:22.596Z,75.84
2022-09-03T06:20:22.532Z,76.32
2022-09-03T06:21:22.527Z,76.52
2022-09-03T06:22:22.519Z,75.94
2022-09-03T06:23:22.517Z,75.88
2022-09-03T06:24:22.517Z,76.07
2022-09-03T06:25:22.508Z,75.98
2022-09-03T06:26:22.506Z,75.49
2022-09-03T06:27:22.502Z,75.98
2022-09-03T06:28:23.394Z,76.07
2022-09-03T06:29:22.491Z,76.46
2022-09-03T06:30:22.488Z,75.88
2022-09-03T06:31:22.521Z,75.69
2022-09-03T06:32:22.478Z,75.69
2022-09-03T06:33:22.519Z,75.59
2022-09-03T06:34:22.470Z,75.59
2022-09-03T06:35:22.473Z,74.34
2022-09-03T06:36:22.461Z,74.73
2022-09-03T06:37:22.462Z,75.40
2022-09-03T06:38:22.451Z,75.59
2022-09-03T06:39:22.552Z,75.79
2022-09-03T06:40:22.442Z,75.82
2022-09-03T06:41:22.439Z,75.54
2022-09-03T06:42:22.438Z,75.05
2022-09-03T06:43:22.426Z,75.15
2022-09-03T06:44:22.429Z,74.86
2022-09-03T06:45:22.427Z,74.76
2022-09-03T06:46:22.420Z,74.96
2022-09-03T06:47:22.418Z,75.34
2022-09-03T06:48:22.435Z,75.24
2022-09-03T06:49:22.406Z,75.44
2022-09-03T06:50:22.404Z,75.82
2022-09-03T06:51:22.396Z,75.82
2022-09-03T06:52:22.398Z,75.73
2022-09-03T06:53:22.392Z,76.01
2022-09-03T06:54:22.391Z,75.82
2022-09-03T06:55:22.386Z,75.73
2022-09-03T06:56:22.378Z,75.92
2022-09-03T06:57:22.374Z,75.54
2022-09-03T06:58:22.400Z,75.67
2022-09-03T06:59:22.372Z,76.06
2022-09-03T07:00:22.366Z,75.96
2022-09-03T07:01:22.429Z,75.57
2022-09-03T07:02:22.476Z,75.54
2022-09-03T07:03:22.578Z,75.92
2022-09-03T07:04:22.349Z,76.53
2022-09-03T07:05:22.350Z,76.25
2022-09-03T07:06:22.345Z,76.11
2022-09-03T07:07:22.349Z,76.82
2022-09-03T07:08:22.368Z,77.31
2022-09-03T07:09:22.328Z,78.17
2022-09-03T07:10:22.339Z,77.98
2022-09-03T07:11:22.321Z,77.50
2022-09-03T07:12:22.327Z,77.40
2022-09-03T07:13:22.317Z,76.88
2022-09-03T07:14:22.325Z,77.75
2022-09-03T07:15:22.319Z,77.26
2022-09-03T07:16:22.391Z,77.94
2022-09-03T07:17:22.304Z,77.75
2022-09-03T07:18:22.335Z,77.36
2022-09-03T07:19:22.297Z,77.94
2022-09-03T07:20:22.326Z,79.77
2022-09-03T07:21:22.291Z,80.06
2022-09-03T07:22:22.289Z,83.33
2022-09-03T07:23:22.280Z,85.74
2022-09-03T07:24:22.728Z,85.31
2022-09-03T07:25:22.274Z,86.75
2022-09-03T07:26:22.268Z,88.57
2022-09-03T07:27:22.272Z,88.48
2022-09-03T07:28:22.348Z,85.88
2022-09-03T07:29:22.264Z,86.75
2022-09-03T07:30:22.295Z,86.42
2022-09-03T07:31:22.381Z,89.11
2022-09-03T07:32:22.253Z,91.13
2022-09-03T07:33:22.248Z,90.45
2022-09-03T07:34:22.401Z,92.57
2022-09-03T07:35:22.238Z,95.26
2022-09-03T07:36:22.235Z,97.52
2022-09-03T07:37:22.231Z,95.89
2022-09-03T07:38:22.262Z,95.70
2022-09-03T07:39:22.290Z,97.42
2022-09-03T07:40:22.222Z,99.99
2022-09-03T07:41:28.534Z,99.99
2022-09-03T07:42:22.216Z,99.99
2022-09-03T07:43:22.208Z,99.99
2022-09-03T07:44:22.208Z,99.99
2022-09-03T07:45:22.200Z,99.99
2022-09-03T07:46:22.229Z,99.99
2022-09-03T07:47:25.221Z,99.99
2022-09-03T07:48:22.220Z,99.99
2022-09-03T07:49:22.543Z,99.99
2022-09-03T07:50:22.187Z,99.99
2022-09-03T07:51:22.176Z,99.99
2022-09-03T07:52:22.175Z,99.99
2022-09-03T07:53:22.167Z,99.99
2022-09-03T07:54:22.165Z,99.99
2022-09-03T07:55:22.163Z,99.99
2022-09-03T07:56:22.164Z,99.99
2022-09-03T07:57:22.155Z,99.99
2022-09-03T07:58:22.180Z,99.99
2022-09-03T07:59:22.146Z,99.99
2022-09-03T08:00:22.140Z,99.99
2022-09-03T08:01:22.129Z,99.99
2022-09-03T08:02:22.132Z,99.99
2022-09-03T08:03:22.226Z,99.99
2022-09-03T08:04:22.167Z,99.99
2022-09-03T08:05:22.122Z,99.99
2022-09-03T08:06:22.120Z,99.99
2022-09-03T08:07:22.117Z,99.99
2022-09-03T08:08:22.168Z,99.99
2022-09-03T08:09:22.104Z,99.99
2022-09-03T08:10:22.101Z,99.99
2022-09-03T08:11:22.111Z,99.99
2022-09-03T08:12:22.100Z,99.99
2022-09-03T08:13:22.092Z,99.99
2022-09-03T08:14:22.087Z,99.99
2022-09-03T08:15:22.082Z,99.99
2022-09-03T08:16:22.137Z,99.99
2022-09-03T08:17:22.073Z,99.99
2022-09-03T08:18:22.136Z,99.99
2022-09-03T08:19:22.064Z,99.99
2022-09-03T08:20:22.060Z,99.99
2022-09-03T08:21:22.055Z,99.99
2022-09-03T08:22:22.053Z,99.99
2022-09-03T08:23:22.045Z,99.99
2022-09-03T08:24:22.046Z,99.99
2022-09-03T08:25:22.036Z,99.99
2022-09-03T08:26:22.034Z,99.99
2022-09-03T08:27:22.029Z,99.99
2022-09-03T08:28:22.056Z,99.99
2022-09-03T08:29:22.020Z,99.99
2022-09-03T08:30:22.028Z,99.99
2022-09-03T08:31:22.087Z,99.99
2022-09-03T08:32:22.009Z,99.99
2022-09-03T08:33:22.001Z,99.99
2022-09-03T08:34:22.004Z,99.99
2022-09-03T08:35:21.996Z,99.99
2022-09-03T08:36:21.991Z,99.99
2022-09-03T08:37:21.995Z,99.99
2022-09-03T08:38:22.021Z,99.99
2022-09-03T08:39:22.013Z,99.99
2022-09-03T08:40:21.976Z,99.99
2022-09-03T08:41:21.969Z,99.99
2022-09-03T08:42:21.964Z,99.99
2022-09-03T08:43:21.961Z,99.99
2022-09-03T08:44:21.962Z,99.99
2022-09-03T08:45:21.950Z,99.99
2022-09-03T08:46:22.046Z,99.99
2022-09-03T08:47:21.953Z,99.99
2022-09-03T08:48:25.691Z,99.99
2022-09-03T08:49:21.941Z,99.99
2022-09-03T08:50:21.948Z,99.99
2022-09-03T08:51:21.933Z,99.99
2022-09-03T08:52:21.934Z,99.99
2022-09-03T08:53:21.928Z,99.99
2022-09-03T08:54:21.927Z,99.99
2022-09-03T08:55:21.916Z,99.99
2022-09-03T08:56:21.915Z,99.99
2022-09-03T08:57:21.913Z,99.99
2022-09-03T08:58:21.991Z,99.99
2022-09-03T08:59:21.910Z,99.99
2022-09-03T09:00:21.901Z,99.99
2022-09-03T09:01:21.938Z,99.99
2022-09-03T09:02:22.018Z,99.99
2022-09-03T09:03:21.896Z,99.99
2022-09-03T09:04:21.894Z,99.99
2022-09-03T09:05:21.884Z,99.99
2022-09-03T09:06:21.881Z,99.99
2022-09-03T09:07:21.871Z,99.99
2022-09-03T09:08:21.942Z,99.99
2022-09-03T09:09:21.867Z,99.99
2022-09-03T09:10:21.864Z,99.99
2022-09-03T09:11:21.866Z,99.99
2022-09-03T09:12:21.860Z,99.99
2022-09-03T09:13:21.855Z,99.99
2022-09-03T09:14:21.853Z,99.99
2022-09-03T09:15:21.843Z,99.99
2022-09-03T09:16:21.915Z,99.99
2022-09-03T09:17:21.848Z,99.99
2022-09-03T09:18:21.868Z,99.99
2022-09-03T09:19:21.832Z,99.99
2022-09-03T09:20:21.838Z,99.99
2022-09-03T09:21:25.132Z,99.99
2022-09-03T09:22:21.827Z,99.99
2022-09-03T09:23:21.828Z,99.99
2022-09-03T09:24:21.816Z,99.99
2022-09-03T09:25:21.816Z,99.99
2022-09-03T09:26:21.822Z,99.99
2022-09-03T09:27:21.812Z,99.99
2022-09-03T09:28:21.913Z,99.99
2022-09-03T09:29:21.812Z,99.99
2022-09-03T09:30:21.802Z,99.99
2022-09-03T09:31:21.871Z,98.19
2022-09-03T09:32:21.929Z,96.46
2022-09-03T09:33:21.789Z,98.29
2022-09-03T09:34:21.800Z,99.44
2022-09-03T09:35:21.793Z,99.99
2022-09-03T09:36:21.791Z,99.16
2022-09-03T09:37:21.791Z,96.56
2022-09-03T09:38:21.787Z,99.16
2022-09-03T09:39:21.807Z,99.99
2022-09-03T09:40:21.781Z,99.99
2022-09-03T09:41:25.123Z,99.79
2022-09-03T09:42:21.781Z,99.99
2022-09-03T09:43:21.775Z,99.99
2022-09-03T09:44:21.772Z,99.99
2022-09-03T09:45:21.769Z,99.99
2022-09-03T09:46:21.813Z,99.99
2022-09-03T09:47:21.767Z,99.99
2022-09-03T09:48:21.833Z,99.99
2022-09-03T09:49:21.761Z,99.99
2022-09-03T09:50:27.332Z,99.99
2022-09-03T09:51:21.760Z,99.99
2022-09-03T09:52:21.756Z,99.99
2022-09-03T09:53:21.818Z,99.99
2022-09-03T09:54:21.755Z,99.11
2022-09-03T09:55:21.759Z,97.42
2022-09-03T09:56:21.752Z,96.85
2022-09-03T09:57:21.757Z,97.33
2022-09-03T09:58:21.824Z,96.85
2022-09-03T09:59:21.738Z,95.74
2022-09-03T10:00:21.743Z,98.34
2022-09-03T10:01:21.795Z,99.11
2022-09-03T10:02:22.455Z,99.50
2022-09-03T10:03:21.734Z,99.21
2022-09-03T10:04:21.732Z,97.76
2022-09-03T10:05:21.726Z,96.03
2022-09-03T10:06:21.729Z,96.22
2022-09-03T10:07:21.728Z,95.84
2022-09-03T10:08:21.804Z,93.81
2022-09-03T10:09:21.725Z,92.18
2022-09-03T10:10:21.728Z,93.43
2022-09-03T10:11:21.718Z,93.52
2022-09-03T10:12:21.717Z,92.56
2022-09-03T10:13:21.720Z,92.22
2022-09-03T10:14:21.715Z,93.76
2022-09-03T10:15:21.714Z,94.44
2022-09-03T10:16:21.774Z,92.22
2022-09-03T10:17:21.728Z,94.92
2022-09-03T10:18:26.039Z,94.44
2022-09-03T10:19:21.706Z,95.11
2022-09-03T10:20:21.702Z,95.50
2022-09-03T10:21:21.703Z,92.71
2022-09-03T10:22:21.699Z,96.32
2022-09-03T10:23:21.697Z,98.73
2022-09-03T10:24:21.698Z,96.99
2022-09-03T10:25:21.691Z,97.77
2022-09-03T10:26:21.692Z,95.45
2022-09-03T10:27:21.692Z,96.94
2022-09-03T10:28:21.692Z,99.16
2022-09-03T10:29:21.689Z,99.84
2022-09-03T10:30:21.689Z,99.93
2022-09-03T10:31:21.764Z,99.99
2022-09-03T10:32:21.692Z,99.99
2022-09-03T10:33:21.686Z,99.99
2022-09-03T10:34:21.685Z,99.99
2022-09-03T10:35:21.681Z,99.99
2022-09-03T10:36:21.687Z,99.99
2022-09-03T10:37:21.688Z,99.99
2022-09-03T10:38:21.685Z,99.99
2022-09-03T10:39:21.720Z,99.21
2022-09-03T10:40:21.682Z,95.54
2022-09-03T10:41:21.684Z,91.59
2022-09-03T10:42:21.681Z,90.00
2022-09-03T10:43:21.683Z,90.58
2022-09-03T10:44:21.687Z,90.00
2022-09-03T10:45:21.681Z,90.96
2022-09-03T10:46:24.144Z,91.25
2022-09-03T10:47:21.683Z,90.96
2022-09-03T10:48:21.687Z,91.83
2022-09-03T10:49:21.680Z,92.60
2022-09-03T10:50:21.726Z,91.93
2022-09-03T10:51:21.683Z,92.80
2022-09-03T10:52:21.676Z,90.87
2022-09-03T10:53:21.678Z,92.50
2022-09-03T10:54:21.679Z,92.12
2022-09-03T10:55:21.678Z,91.69
2022-09-03T10:56:21.672Z,91.20
2022-09-03T10:57:21.673Z,91.40
2022-09-03T10:58:21.673Z,92.85
2022-09-03T10:59:23.392Z,91.69
2022-09-03T11:00:21.671Z,93.13
2022-09-03T11:01:21.734Z,91.69
2022-09-03T11:02:21.745Z,91.78
2022-09-03T11:03:21.667Z,92.27
2022-09-03T11:04:21.665Z,91.30
2022-09-03T11:05:21.667Z,92.75
2022-09-03T11:06:21.663Z,91.40
2022-09-03T11:07:21.663Z,92.17
2022-09-03T11:08:21.666Z,92.99
2022-09-03T11:09:21.661Z,91.11
2022-09-03T11:10:21.658Z,90.58
2022-09-03T11:11:21.662Z,90.58
2022-09-03T11:12:21.654Z,92.02
2022-09-03T11:13:21.659Z,91.74
2022-09-03T11:14:21.646Z,89.13
2022-09-03T11:15:25.141Z,91.78
2022-09-03T11:16:21.684Z,91.01
2022-09-03T11:17:21.652Z,89.79
2022-09-03T11:18:21.646Z,89.07
2022-09-03T11:19:21.649Z,88.87
2022-09-03T11:20:21.647Z,88.43
2022-09-03T11:21:21.646Z,87.71
2022-09-03T11:22:21.651Z,88.62
2022-09-03T11:23:21.647Z,85.47
2022-09-03T11:24:21.646Z,83.86
2022-09-03T11:25:21.710Z,82.08
2022-09-03T11:26:21.648Z,81.89
2022-09-03T11:27:21.650Z,83.83
2022-09-03T11:28:21.650Z,82.18
2022-09-03T11:29:21.651Z,84.11
2022-09-03T11:30:21.669Z,85.37
2022-09-03T11:31:21.696Z,84.17
2022-09-03T11:32:21.654Z,82.91
2022-09-03T11:33:21.653Z,83.88
2022-09-03T11:34:23.514Z,82.10
2022-09-03T11:35:21.667Z,83.94
2022-09-03T11:36:21.666Z,85.77
2022-09-03T11:37:21.688Z,85.00
2022-09-03T11:38:21.667Z,83.98
2022-09-03T11:39:21.703Z,83.59
2022-09-03T11:40:21.682Z,83.49
2022-09-03T11:41:21.673Z,83.01
2022-09-03T11:42:21.678Z,84.41
2022-09-03T11:43:21.675Z,82.33
2022-09-03T11:44:21.676Z,83.53
2022-09-03T11:45:21.702Z,84.41
2022-09-03T11:46:21.983Z,84.50
2022-09-03T11:47:21.679Z,84.06
2022-09-03T11:48:21.682Z,83.86
2022-09-03T11:49:21.685Z,85.22
2022-09-03T11:50:21.753Z,84.58
2022-09-03T11:51:21.686Z,82.55
2022-09-03T11:52:21.693Z,84.00
2022-09-03T11:53:21.701Z,81.97
2022-09-03T11:54:21.695Z,83.33
2022-09-03T11:55:21.701Z,82.75
2022-09-03T11:56:21.720Z,83.81
2022-09-03T11:57:21.698Z,82.94
2022-09-03T11:58:21.697Z,82.45
2022-09-03T11:59:21.706Z,82.07
2022-09-03T12:00:21.702Z,83.03
2022-09-03T12:01:21.708Z,82.35
2022-09-03T12:02:21.770Z,81.15
2022-09-03T12:03:21.703Z,80.96
2022-09-03T12:04:21.727Z,81.73
2022-09-03T12:05:21.712Z,82.70
2022-09-03T12:06:21.709Z,83.58
2022-09-03T12:07:21.710Z,83.38
2022-09-03T12:08:21.712Z,81.15
2022-09-03T12:09:21.713Z,82.51
2022-09-03T12:10:21.715Z,81.25
2022-09-03T12:11:21.720Z,81.73
2022-09-03T12:12:21.715Z,82.22
2022-09-03T12:13:21.780Z,83.58
2022-09-03T12:14:21.717Z,83.72
2022-09-03T12:15:21.718Z,82.41
2022-09-03T12:16:21.765Z,82.41
2022-09-03T12:17:21.714Z,82.17
2022-09-03T12:18:21.718Z,82.84
2022-09-03T12:19:21.723Z,82.17
2022-09-03T12:20:21.726Z,82.17
2022-09-03T12:21:21.727Z,81.97
2022-09-03T12:22:21.725Z,81.20
2022-09-03T12:23:21.728Z,81.97
2022-09-03T12:24:21.727Z,82.94
2022-09-03T12:25:21.728Z,83.13
2022-09-03T12:26:21.729Z,84.97
2022-09-03T12:27:21.730Z,83.23
2022-09-03T12:28:21.732Z,82.45
2022-09-03T12:29:21.731Z,82.17
2022-09-03T12:30:21.735Z,82.88
2022-09-03T12:31:21.817Z,82.50
2022-09-03T12:32:21.761Z,82.10
2022-09-03T12:33:21.736Z,82.69
2022-09-03T12:34:21.730Z,83.75
2022-09-03T12:36:21.865Z,82.59
2022-09-03T12:38:04.504Z,82.10
2022-09-03T12:38:21.740Z,81.62
2022-09-03T12:40:05.093Z,81.43
2022-09-03T12:40:21.839Z,80.46
2022-09-03T12:41:26.618Z,80.36
2022-09-03T12:42:21.740Z,81.23
2022-09-03T12:43:38.272Z,81.13
2022-09-03T12:44:21.746Z,81.33
2022-09-03T12:45:21.741Z,80.69
2022-09-03T12:46:21.795Z,81.18
2022-09-03T12:47:37.895Z,82.05
2022-09-03T12:48:22.429Z,81.60
2022-09-03T12:49:36.983Z,80.63
2022-09-03T12:50:21.749Z,80.15
2022-09-03T12:52:21.750Z,79.76
2022-09-03T12:53:21.753Z,78.79
2022-09-03T12:54:21.750Z,79.08